Time;durP1;ratioP1;P1;durP2;ratioP2;P2;SDS_P1;SDS_P2;PMS_P1;PMS_P2;Temp;Humidity;BMP_temperature;BMP_pressure;BME280_temperature;BME280_humidity;BME280_pressure;Samples;Min_cycle;Max_cycle;Signal;HPM_P1;HPM_P2
2022/09/01 00:00:01;;;;;;;;;;;;;;;;;;349975;28;1763;-63
2022/09/01 00:00:12;;;;;;;;;;;;;;;;;;349989;28;822;-63
2022/09/01 00:00:27;;;;;;;;;;;;;;;;;;349976;28;1059;-63
2022/09/01 00:00:37;;;;;;;;;;;;;;;;;;349971;28;1023;-63
2022/09/01 00:00:48;;;;;;;;;;;;;;;;;;350026;28;1023;-63
2022/09/01 00:00:58;;;;;;;;;;;;;;;;;;350077;28;773;-63
2022/09/01 00:01:09;;;;;;;;;;;;;;;;;;350061;28;841;-63
2022/09/01 00:01:20;;;;;;;;;;;;;;;;;;349979;28;952;-62
2022/09/01 00:01:30;;;;;;;;;;;;;;;;;;350038;28;865;-63
2022/09/01 00:01:41;;;;;;;;;;;;;;;;;;349986;28;928;-63
2022/09/01 00:01:52;;;;;;;;;;;;;;;;;;350073;28;858;-63
2022/09/01 00:02:07;;;;;;;;;;;;;;;;;;350022;28;995;-62
2022/09/01 00:02:17;;;;;;;;;;;;;;;;;;350041;28;793;-63
2022/09/01 00:02:27;;;;;;;;;;;;;;;;;;350050;28;980;-63
2022/09/01 00:02:37;;;;;;;;;;;;;;;;;;350166;28;1739;-63
2022/09/01 00:02:49;;;;;;;;;;;;;;;;;;351412;28;971;-63
2022/09/01 00:02:59;;;;;;;;;;;;;;;;;;351447;28;1034;-64
2022/09/01 00:03:09;;;;;;;;;;;;;;;;;;351374;28;904;-63
2022/09/01 00:03:22;;;;;;;;;;;;;;;;;;351468;28;848;-62
2022/09/01 00:03:32;;;;;;;;;;;;;;;;;;351387;28;980;-63
2022/09/01 00:03:42;;;;;;;;;;;;;;;;;;351413;28;995;-63
2022/09/01 00:03:53;;;;;;;;;;;;;;;;;;351446;28;975;-63
2022/09/01 00:04:04;;;;;;;;;;;;;;;;;;351364;28;943;-63
2022/09/01 00:04:14;;;;;;;;;;;;;;;;;;351406;28;924;-63
2022/09/01 00:04:25;;;;;;;;;;;;;;;;;;351417;28;924;-63
2022/09/01 00:04:37;;;;;;;;;;;;;;;;;;351345;28;999;-62
2022/09/01 00:04:47;;;;;;;;;;;;;;;;;;351427;28;995;-63
2022/09/01 00:04:58;;;;;;;;;;;;;;;;;;351407;28;880;-63
2022/09/01 00:05:08;;;;;;;;;;;;;;;;;;351391;28;1109;-62
2022/09/01 00:05:18;;;;;;;;;;;;;;;;;;351450;28;781;-63
2022/09/01 00:05:30;;;;;;;;;;;;;;;;;;351374;28;924;-63
2022/09/01 00:05:40;;;;;;;;;;;;;;;;;;351424;28;948;-63
2022/09/01 00:05:53;;;;;;;;;;;;;;;;;;351435;28;912;-62
2022/09/01 00:06:08;;;;;;;;;;;;;;;;;;351377;28;991;-63
2022/09/01 00:06:21;;;;;;;;;;;;;;;;;;351407;28;944;-63
2022/09/01 00:06:31;;;;;;;;;;;;;;;;;;351427;28;956;-63
2022/09/01 00:06:41;;;;;;;;;;;;;;;;;;351301;28;960;-63
2022/09/01 00:06:53;;;;;;;;;;;;;;;;;;351411;28;928;-63
2022/09/01 00:07:03;;;;;;;;;;;;;;;;;;351400;28;960;-63
2022/09/01 00:07:13;;;;;;;;;;;;;;;;;;351360;28;959;-63
2022/09/01 00:07:23;;;;;;;;;;;;;;;;;;351423;28;920;-63
2022/09/01 00:07:34;;;;;;;;;;;;;;;;;;351429;28;1117;-63
2022/09/01 00:07:44;;;;;;;;;;;;;;;;;;351382;28;881;-62
2022/09/01 00:07:54;;;;;;;;;;;;;;;;;;351348;28;987;-63
2022/09/01 00:08:04;;;;;;;;;;;;;;;;;;351430;28;928;-63
2022/09/01 00:08:14;;;;;;;;;;;;;;;;;;351434;28;825;-63
2022/09/01 00:08:24;;;;;;;;;;;;;;;;;;351412;28;987;-63
2022/09/01 00:08:34;;;;;;;;;;;;;;;;;;351349;28;1055;-63
2022/09/01 00:08:44;;;;;;;;;;;;;;;;;;351408;28;979;-62
2022/09/01 00:08:54;;;;;;;;;;;;;;;;;;351367;28;963;-63
2022/09/01 00:09:05;;;;;;;;;;;;;;;;;;351449;28;805;-62
2022/09/01 00:09:15;;;;;;;;;;;;;;;;;;351350;28;941;-63
2022/09/01 00:09:25;;;;;;;;;;;;;;;;;;351447;28;797;-62
2022/09/01 00:09:35;;;;;;;;;;;;;;;;;;351420;28;932;-63
2022/09/01 00:09:45;;;;;;;;;;;;;;;;;;350355;28;1755;-62
2022/09/01 00:09:55;;;;;;;;;;;;;;;;;;349937;28;1050;-63
2022/09/01 00:10:05;;;;;;;;;;;;;;;;;;349962;28;916;-63
2022/09/01 00:10:15;;;;;;;;;;;;;;;;;;349982;28;852;-63
2022/09/01 00:10:25;;;;;;;;;;;;;;;;;;349985;28;937;-62
2022/09/01 00:10:36;;;;;;;;;;;;;;;;;;349982;28;928;-63
2022/09/01 00:10:46;;;;;;;;;;;;;;;;;;349978;28;916;-63
2022/09/01 00:10:56;;;;;;;;;;;;;;;;;;349952;28;936;-63
2022/09/01 00:11:06;;;;;;;;;;;;;;;;;;350055;28;845;-63
2022/09/01 00:11:16;;;;;;;;;;;;;;;;;;349937;28;976;-63
2022/09/01 00:11:26;;;;;;;;;;;;;;;;;;349612;28;1860;-63
2022/09/01 00:11:36;;;;;;;;;;;;;;;;;;351843;28;1293;-63
2022/09/01 00:11:46;;;;;;;;;;;;;;;;;;352826;28;797;-62
2022/09/01 00:11:57;;;;;;;;;;;;;;;;;;352769;28;924;-62
2022/09/01 00:12:07;;;;;;;;;;;;;;;;;;352775;28;1088;-63
2022/09/01 00:12:17;;;;;;;;;;;;;;;;;;352771;27;912;-63
2022/09/01 00:12:27;;;;;;;;;;;;;;;;;;352808;28;927;-62
2022/09/01 00:12:37;;;;;;;;;;;;;;;;;;352732;28;1043;-62
2022/09/01 00:12:47;;;;;;;;;;;;;;;;;;352799;28;916;-62
2022/09/01 00:12:57;;;;;;;;;;;;;;;;;;352838;28;972;-63
2022/09/01 00:13:07;;;;;;;;;;;;;;;;;;352799;28;852;-63
2022/09/01 00:13:17;;;;;;;;;;;;;;;;;;352737;27;979;-63
2022/09/01 00:13:32;;;;;;;;;;;;;;;;;;351590;28;1941;-63
2022/09/01 00:13:42;;;;;;;;;;;;;;;;;;352819;28;1006;-62
2022/09/01 00:13:52;;;;;;;;;;;;;;;;;;352809;28;999;-62
2022/09/01 00:14:02;;;;;;;;;;;;;;;;;;352732;28;951;-63
2022/09/01 00:14:12;;;;;;;;;;;;;;;;;;352823;28;974;-62
2022/09/01 00:14:22;;;;;;;;;;;;;;;;;;352790;28;911;-63
2022/09/01 00:14:32;;;;;;;;;;;;;;;;;;352824;27;991;-62
2022/09/01 00:14:42;;;;;;;;;;;;;;;;;;352818;28;821;-63
2022/09/01 00:14:52;;;;;;;;;;;;;;;;;;352816;28;971;-63
2022/09/01 00:15:03;;;;;;;;;;;;;;;;;;352767;28;935;-63
2022/09/01 00:15:13;;;;;;;;;;;;;;;;;;352775;28;1281;-63
2022/09/01 00:15:23;;;;;;;;;;;;;;;;;;352769;28;943;-63
2022/09/01 00:15:33;;;;;;;;;;;;;;;;;;352791;28;875;-63
2022/09/01 00:15:43;;;;;;;;;;;;;;;;;;352826;28;869;-62
2022/09/01 00:15:53;;;;;;;;;;;;;;;;;;352806;28;991;-63
2022/09/01 00:16:04;;;;;;;;;;;;;;;;;;352752;28;943;-62
2022/09/01 00:16:15;;;;;;;;;;;;;;;;;;352815;28;928;-63
2022/09/01 00:16:25;;;;;;;;;;;;;;;;;;352761;28;1015;-63
2022/09/01 00:16:35;;;;;;;;;;;;;;;;;;352768;28;946;-63
2022/09/01 00:16:45;;;;;;;;;;;;;;;;;;352815;28;980;-63
2022/09/01 00:16:55;;;;;;;;;;;;;;;;;;352807;28;916;-63
2022/09/01 00:17:05;;;;;;;;;;;;;;;;;;352707;28;960;-63
2022/09/01 00:17:15;;;;;;;;;;;;;;;;;;352825;28;971;-63
2022/09/01 00:17:26;;;;;;;;;;;;;;;;;;352824;28;976;-62
2022/09/01 00:17:36;;;;;;;;;;;;;;;;;;352767;28;912;-63
2022/09/01 00:17:46;;;;;;;;;;;;;;;;;;352870;28;904;-63
2022/09/01 00:17:56;;;;;;;;;;;;;;;;;;352758;28;1909;-63
2022/09/01 00:18:06;;;;;;;;;;;;;;;;;;352792;28;864;-63
2022/09/01 00:18:16;;;;;;;;;;;;;;;;;;352822;28;924;-63
2022/09/01 00:18:26;;;;;;;;;;;;;;;;;;352793;28;931;-63
2022/09/01 00:18:36;;;;;;;;;;;;;;;;;;352755;28;1042;-63
2022/09/01 00:18:48;;;;;;;;;;;;;;;;;;352806;28;852;-62
2022/09/01 00:18:58;;;;;;;;;;;;;;;;;;352826;28;876;-62
2022/09/01 00:19:08;;;;;;;;;;;;;;;;;;352739;28;923;-63
2022/09/01 00:19:18;;;;;;;;;;;;;;;;;;352772;28;928;-63
2022/09/01 00:19:28;;;;;;;;;;;;;;;;;;352769;28;975;-63
2022/09/01 00:19:38;;;;;;;;;;;;;;;;;;352773;28;867;-63
2022/09/01 00:19:49;;;;;;;;;;;;;;;;;;352778;28;1007;-62
2022/09/01 00:19:59;;;;;;;;;;;;;;;;;;352819;28;861;-63
2022/09/01 00:20:09;;;;;;;;;;;;;;;;;;352789;28;944;-63
2022/09/01 00:20:19;;;;;;;;;;;;;;;;;;352792;28;958;-63
2022/09/01 00:20:29;;;;;;;;;;;;;;;;;;352805;28;919;-63
2022/09/01 00:20:39;;;;;;;;;;;;;;;;;;352751;28;928;-63
2022/09/01 00:20:49;;;;;;;;;;;;;;;;;;352805;28;1438;-63
2022/09/01 00:20:59;;;;;;;;;;;;;;;;;;352771;28;963;-63
2022/09/01 00:21:09;;;;;;;;;;;;;;;;;;352799;28;844;-63
2022/09/01 00:21:19;;;;;;;;;;;;;;;;;;352661;28;1206;-63
2022/09/01 00:21:29;;;;;;;;;;;;;;;;;;352766;28;955;-63
2022/09/01 00:21:40;;;;;;;;;;;;;;;;;;352782;28;1031;-63
2022/09/01 00:21:50;;;;;;;;;;;;;;;;;;352791;28;971;-63
2022/09/01 00:22:00;;;;;;;;;;;;;;;;;;352746;28;1001;-63
2022/09/01 00:22:10;;;;;;;;;;;;;;;;;;352782;28;952;-63
2022/09/01 00:22:20;;;;;;;;;;;;;;;;;;352738;28;967;-63
2022/09/01 00:22:32;;;;;;;;;;;;;;;;;;352760;28;979;-63
2022/09/01 00:22:42;;;;;;;;;;;;;;;;;;352763;28;947;-63
2022/09/01 00:22:52;;;;;;;;;;;;;;;;;;352812;28;975;-63
2022/09/01 00:23:02;;;;;;;;;;;;;;;;;;352798;28;924;-63
2022/09/01 00:23:13;;;;;;;;;;;;;;;;;;352753;28;860;-63
2022/09/01 00:23:23;;;;;;;;;;;;;;;;;;352814;28;908;-63
2022/09/01 00:23:33;;;;;;;;;;;;;;;;;;352727;28;960;-63
2022/09/01 00:23:43;;;;;;;;;;;;;;;;;;352820;28;844;-63
2022/09/01 00:23:53;;;;;;;;;;;;;;;;;;352710;28;916;-63
2022/09/01 00:24:03;;;;;;;;;;;;;;;;;;352768;28;1079;-63
2022/09/01 00:24:13;;;;;;;;;;;;;;;;;;352794;28;924;-63
2022/09/01 00:24:24;;;;;;;;;;;;;;;;;;351810;28;1715;-63
2022/09/01 00:24:35;;;;;;;;;;;;;;;;;;350102;28;1142;-63
2022/09/01 00:24:45;;;;;;;;;;;;;;;;;;350016;28;841;-63
2022/09/01 00:24:55;;;;;;;;;;;;;;;;;;349847;28;1859;-63
2022/09/01 00:25:06;;;;;;;;;;;;;;;;;;350443;28;1419;-63
2022/09/01 00:25:18;;;;;;;;;;;;;;;;;;351437;28;992;-63
2022/09/01 00:25:29;;;;;;;;;;;;;;;;;;351377;28;928;-63
2022/09/01 00:25:39;;;;;;;;;;;;;;;;;;351351;28;849;-63
2022/09/01 00:25:49;;;;;;;;;;;;;;;;;;351384;28;974;-63
2022/09/01 00:25:59;;;;;;;;;;;;;;;;;;351376;28;991;-63
2022/09/01 00:26:09;;;;;;;;;;;;;;;;;;351353;28;1418;-63
2022/09/01 00:26:19;;;;;;;;;;;;;;;;;;351376;28;944;-63
2022/09/01 00:26:29;;;;;;;;;;;;;;;;;;351393;28;972;-63
2022/09/01 00:26:40;;;;;;;;;;;;;;;;;;351432;28;920;-63
2022/09/01 00:26:50;;;;;;;;;;;;;;;;;;351438;28;865;-63
2022/09/01 00:27:00;;;;;;;;;;;;;;;;;;351371;28;928;-63
2022/09/01 00:27:10;;;;;;;;;;;;;;;;;;351372;28;1000;-63
2022/09/01 00:27:20;;;;;;;;;;;;;;;;;;351404;28;944;-63
2022/09/01 00:27:31;;;;;;;;;;;;;;;;;;351345;28;1019;-63
2022/09/01 00:27:41;;;;;;;;;;;;;;;;;;351299;28;964;-64
2022/09/01 00:27:51;;;;;;;;;;;;;;;;;;351376;28;963;-63
2022/09/01 00:28:03;;;;;;;;;;;;;;;;;;351423;28;994;-63
2022/09/01 00:28:13;;;;;;;;;;;;;;;;;;351333;28;948;-63
2022/09/01 00:28:23;;;;;;;;;;;;;;;;;;351409;28;979;-63
2022/09/01 00:28:33;;;;;;;;;;;;;;;;;;351393;28;837;-63
2022/09/01 00:28:44;;;;;;;;;;;;;;;;;;351383;28;928;-63
2022/09/01 00:28:54;;;;;;;;;;;;;;;;;;351307;28;1106;-63
2022/09/01 00:29:04;;;;;;;;;;;;;;;;;;351426;28;888;-63
2022/09/01 00:29:14;;;;;;;;;;;;;;;;;;351374;28;924;-63
2022/09/01 00:29:24;;;;;;;;;;;;;;;;;;351408;28;857;-63
2022/09/01 00:29:34;;;;;;;;;;;;;;;;;;351308;28;972;-63
2022/09/01 00:29:44;;;;;;;;;;;;;;;;;;351378;28;928;-63
2022/09/01 00:29:55;;;;;;;;;;;;;;;;;;351249;28;1763;-63
2022/09/01 00:30:05;;;;;;;;;;;;;;;;;;351001;28;1528;-63
2022/09/01 00:30:15;;;;;;;;;;;;;;;;;;351352;28;988;-63
2022/09/01 00:30:26;;;;;;;;;;;;;;;;;;351380;28;1192;-63
2022/09/01 00:30:36;;;;;;;;;;;;;;;;;;351385;28;924;-63
2022/09/01 00:30:46;;;;;;;;;;;;;;;;;;351373;28;976;-63
2022/09/01 00:30:57;;;;;;;;;;;;;;;;;;351422;28;881;-63
2022/09/01 00:31:07;;;;;;;;;;;;;;;;;;351338;28;932;-63
2022/09/01 00:31:20;;;;;;;;;;;;;;;;;;351416;28;904;-63
2022/09/01 00:31:30;;;;;;;;;;;;;;;;;;351409;28;1086;-63
2022/09/01 00:31:40;;;;;;;;;;;;;;;;;;351363;28;849;-63
2022/09/01 00:31:50;;;;;;;;;;;;;;;;;;351348;28;948;-63
2022/09/01 00:32:00;;;;;;;;;;;;;;;;;;350950;28;1708;-63
2022/09/01 00:32:11;;;;;;;;;;;;;;;;;;351403;28;923;-63
2022/09/01 00:32:21;;;;;;;;;;;;;;;;;;351404;28;936;-63
2022/09/01 00:32:31;;;;;;;;;;;;;;;;;;351424;28;836;-63
2022/09/01 00:32:45;;;;;;;;;;;;;;;;;;351371;28;995;-63
2022/09/01 00:32:55;;;;;;;;;;;;;;;;;;351312;28;940;-63
2022/09/01 00:33:05;;;;;;;;;;;;;;;;;;351356;28;1067;-63
2022/09/01 00:33:15;;;;;;;;;;;;;;;;;;351409;28;805;-64
2022/09/01 00:33:25;;;;;;;;;;;;;;;;;;351400;28;844;-63
2022/09/01 00:33:35;;;;;;;;;;;;;;;;;;350848;28;1727;-63
2022/09/01 00:33:46;;;;;;;;;;;;;;;;;;350024;28;1019;-63
2022/09/01 00:33:56;;;;;;;;;;;;;;;;;;349989;28;932;-63
2022/09/01 00:34:06;;;;;;;;;;;;;;;;;;349980;28;932;-63
2022/09/01 00:34:16;;;;;;;;;;;;;;;;;;349985;28;1028;-63
2022/09/01 00:34:26;;;;;;;;;;;;;;;;;;350006;28;912;-63
2022/09/01 00:34:36;;;;;;;;;;;;;;;;;;349933;28;936;-63
2022/09/01 00:34:46;;;;;;;;;;;;;;;;;;349969;28;782;-63
2022/09/01 00:34:56;;;;;;;;;;;;;;;;;;349981;28;999;-63
2022/09/01 00:35:07;;;;;;;;;;;;;;;;;;349998;28;752;-63
2022/09/01 00:35:17;;;;;;;;;;;;;;;;;;349982;28;920;-63
2022/09/01 00:35:27;;;;;;;;;;;;;;;;;;349975;28;837;-63
2022/09/01 00:35:37;;;;;;;;;;;;;;;;;;350008;28;929;-63
2022/09/01 00:35:47;;;;;;;;;;;;;;;;;;350333;28;1356;-63
2022/09/01 00:35:58;;;;;;;;;;;;;;;;;;351325;28;988;-63
2022/09/01 00:36:08;;;;;;;;;;;;;;;;;;351383;28;991;-63
2022/09/01 00:36:18;;;;;;;;;;;;;;;;;;351325;28;991;-63
2022/09/01 00:36:28;;;;;;;;;;;;;;;;;;351374;28;991;-63
2022/09/01 00:36:39;;;;;;;;;;;;;;;;;;351414;28;900;-62
2022/09/01 00:36:49;;;;;;;;;;;;;;;;;;351357;28;920;-63
2022/09/01 00:36:59;;;;;;;;;;;;;;;;;;351417;28;774;-63
2022/09/01 00:37:09;;;;;;;;;;;;;;;;;;351337;28;988;-63
2022/09/01 00:37:19;;;;;;;;;;;;;;;;;;351398;28;968;-62
2022/09/01 00:37:29;;;;;;;;;;;;;;;;;;351408;28;908;-63
2022/09/01 00:37:39;;;;;;;;;;;;;;;;;;351394;28;1007;-63
2022/09/01 00:37:49;;;;;;;;;;;;;;;;;;351390;28;822;-63
2022/09/01 00:37:59;;;;;;;;;;;;;;;;;;351192;28;1893;-63
2022/09/01 00:38:09;;;;;;;;;;;;;;;;;;351422;28;1011;-63
2022/09/01 00:38:20;;;;;;;;;;;;;;;;;;351407;28;864;-63
2022/09/01 00:38:30;;;;;;;;;;;;;;;;;;351407;28;766;-63
2022/09/01 00:38:40;;;;;;;;;;;;;;;;;;351385;28;944;-63
2022/09/01 00:38:50;;;;;;;;;;;;;;;;;;351314;28;872;-63
2022/09/01 00:39:00;;;;;;;;;;;;;;;;;;351359;28;1059;-63
2022/09/01 00:39:10;;;;;;;;;;;;;;;;;;351404;28;936;-63
2022/09/01 00:39:20;;;;;;;;;;;;;;;;;;351349;28;1016;-62
2022/09/01 00:39:31;;;;;;;;;;;;;;;;;;351414;28;928;-63
2022/09/01 00:39:41;;;;;;;;;;;;;;;;;;350634;28;1887;-63
2022/09/01 00:39:51;;;;;;;;;;;;;;;;;;350826;28;1293;-63
2022/09/01 00:40:01;;;;;;;;;;;;;;;;;;351344;28;928;-63
2022/09/01 00:40:12;;;;;;;;;;;;;;;;;;351340;28;909;-63
2022/09/01 00:40:22;;;;;;;;;;;;;;;;;;351376;28;956;-63
2022/09/01 00:40:32;;;;;;;;;;;;;;;;;;351371;28;868;-63
2022/09/01 00:40:42;;;;;;;;;;;;;;;;;;351321;28;1136;-63
2022/09/01 00:40:52;;;;;;;;;;;;;;;;;;351338;28;928;-63
2022/09/01 00:41:02;;;;;;;;;;;;;;;;;;351366;28;924;-63
2022/09/01 00:41:12;;;;;;;;;;;;;;;;;;351390;28;904;-63
2022/09/01 00:41:23;;;;;;;;;;;;;;;;;;351339;28;987;-63
2022/09/01 00:41:33;;;;;;;;;;;;;;;;;;351398;28;913;-63
2022/09/01 00:41:43;;;;;;;;;;;;;;;;;;351406;28;837;-63
2022/09/01 00:41:53;;;;;;;;;;;;;;;;;;350395;28;1715;-63
2022/09/01 00:42:03;;;;;;;;;;;;;;;;;;351363;28;913;-63
2022/09/01 00:42:13;;;;;;;;;;;;;;;;;;351327;28;876;-63
2022/09/01 00:42:24;;;;;;;;;;;;;;;;;;351377;28;862;-63
2022/09/01 00:42:34;;;;;;;;;;;;;;;;;;351407;28;1014;-63
2022/09/01 00:42:44;;;;;;;;;;;;;;;;;;351406;28;794;-63
2022/09/01 00:42:54;;;;;;;;;;;;;;;;;;351314;28;901;-63
2022/09/01 00:43:05;;;;;;;;;;;;;;;;;;351349;28;1011;-63
2022/09/01 00:43:15;;;;;;;;;;;;;;;;;;351356;28;940;-63
2022/09/01 00:43:25;;;;;;;;;;;;;;;;;;351306;28;1091;-63
2022/09/01 00:43:35;;;;;;;;;;;;;;;;;;351386;28;921;-63
2022/09/01 00:43:45;;;;;;;;;;;;;;;;;;351332;28;924;-63
2022/09/01 00:43:55;;;;;;;;;;;;;;;;;;351332;28;957;-63
2022/09/01 00:44:05;;;;;;;;;;;;;;;;;;351420;28;920;-63
2022/09/01 00:44:16;;;;;;;;;;;;;;;;;;351316;28;1019;-63
2022/09/01 00:44:26;;;;;;;;;;;;;;;;;;351351;28;972;-63
2022/09/01 00:44:37;;;;;;;;;;;;;;;;;;351378;28;960;-63
2022/09/01 00:44:47;;;;;;;;;;;;;;;;;;351407;28;801;-63
2022/09/01 00:44:57;;;;;;;;;;;;;;;;;;351328;28;905;-63
2022/09/01 00:45:07;;;;;;;;;;;;;;;;;;351378;28;853;-64
2022/09/01 00:45:20;;;;;;;;;;;;;;;;;;351371;28;1003;-63
2022/09/01 00:45:30;;;;;;;;;;;;;;;;;;351349;28;805;-63
2022/09/01 00:45:41;;;;;;;;;;;;;;;;;;351428;28;770;-63
2022/09/01 00:45:51;;;;;;;;;;;;;;;;;;351391;28;983;-63
2022/09/01 00:46:01;;;;;;;;;;;;;;;;;;351318;28;971;-63
2022/09/01 00:46:11;;;;;;;;;;;;;;;;;;351376;28;1015;-63
2022/09/01 00:46:21;;;;;;;;;;;;;;;;;;351313;28;967;-63
2022/09/01 00:46:32;;;;;;;;;;;;;;;;;;351436;28;848;-63
2022/09/01 00:46:42;;;;;;;;;;;;;;;;;;351305;28;1010;-63
2022/09/01 00:46:53;;;;;;;;;;;;;;;;;;351379;28;904;-63
2022/09/01 00:47:05;;;;;;;;;;;;;;;;;;351366;28;920;-63
2022/09/01 00:47:15;;;;;;;;;;;;;;;;;;351281;28;1030;-64
2022/09/01 00:47:25;;;;;;;;;;;;;;;;;;351395;28;964;-63
2022/09/01 00:47:35;;;;;;;;;;;;;;;;;;351398;28;845;-63
2022/09/01 00:47:45;;;;;;;;;;;;;;;;;;351376;28;932;-63
2022/09/01 00:47:56;;;;;;;;;;;;;;;;;;351333;28;957;-63
2022/09/01 00:48:06;;;;;;;;;;;;;;;;;;351340;28;927;-63
2022/09/01 00:48:16;;;;;;;;;;;;;;;;;;351326;28;1016;-63
2022/09/01 00:48:26;;;;;;;;;;;;;;;;;;351363;28;916;-63
2022/09/01 00:48:36;;;;;;;;;;;;;;;;;;351290;28;852;-63
2022/09/01 00:48:47;;;;;;;;;;;;;;;;;;351348;28;909;-63
2022/09/01 00:48:58;;;;;;;;;;;;;;;;;;351377;28;991;-63
2022/09/01 00:49:08;;;;;;;;;;;;;;;;;;351304;28;925;-63
2022/09/01 00:49:18;;;;;;;;;;;;;;;;;;351397;28;916;-63
2022/09/01 00:49:28;;;;;;;;;;;;;;;;;;351359;28;905;-63
2022/09/01 00:49:39;;;;;;;;;;;;;;;;;;351379;28;860;-63
2022/09/01 00:49:49;;;;;;;;;;;;;;;;;;351336;28;901;-63
2022/09/01 00:49:59;;;;;;;;;;;;;;;;;;351373;28;916;-63
2022/09/01 00:50:10;;;;;;;;;;;;;;;;;;351361;28;873;-63
2022/09/01 00:50:20;;;;;;;;;;;;;;;;;;351383;28;896;-63
2022/09/01 00:50:30;;;;;;;;;;;;;;;;;;351205;28;1039;-63
2022/09/01 00:50:40;;;;;;;;;;;;;;;;;;351331;28;837;-63
2022/09/01 00:50:51;;;;;;;;;;;;;;;;;;351426;28;785;-63
2022/09/01 00:51:01;;;;;;;;;;;;;;;;;;351301;28;1021;-63
2022/09/01 00:51:11;;;;;;;;;;;;;;;;;;351320;28;924;-63
2022/09/01 00:51:21;;;;;;;;;;;;;;;;;;351389;28;920;-63
2022/09/01 00:51:31;;;;;;;;;;;;;;;;;;351380;28;1055;-63
2022/09/01 00:51:41;;;;;;;;;;;;;;;;;;351366;28;912;-63
2022/09/01 00:51:51;;;;;;;;;;;;;;;;;;351390;28;912;-63
2022/09/01 00:52:01;;;;;;;;;;;;;;;;;;351376;28;805;-63
2022/09/01 00:52:11;;;;;;;;;;;;;;;;;;351306;28;1003;-63
2022/09/01 00:52:21;;;;;;;;;;;;;;;;;;351377;28;857;-63
2022/09/01 00:52:32;;;;;;;;;;;;;;;;;;351348;28;790;-63
2022/09/01 00:52:42;;;;;;;;;;;;;;;;;;351362;28;813;-63
2022/09/01 00:52:52;;;;;;;;;;;;;;;;;;351388;28;836;-63
2022/09/01 00:53:02;;;;;;;;;;;;;;;;;;351358;28;928;-63
2022/09/01 00:53:12;;;;;;;;;;;;;;;;;;350333;28;1903;-63
2022/09/01 00:53:22;;;;;;;;;;;;;;;;;;350921;28;1440;-63
2022/09/01 00:53:32;;;;;;;;;;;;;;;;;;351252;28;1071;-62
2022/09/01 00:53:43;;;;;;;;;;;;;;;;;;351350;28;920;-63
2022/09/01 00:53:54;;;;;;;;;;;;;;;;;;351340;28;1509;-63
2022/09/01 00:54:04;;;;;;;;;;;;;;;;;;351337;28;952;-63
2022/09/01 00:54:14;;;;;;;;;;;;;;;;;;351331;28;972;-63
2022/09/01 00:54:25;;;;;;;;;;;;;;;;;;351415;28;923;-63
2022/09/01 00:54:35;;;;;;;;;;;;;;;;;;351308;28;964;-63
2022/09/01 00:54:45;;;;;;;;;;;;;;;;;;351314;28;920;-63
2022/09/01 00:54:56;;;;;;;;;;;;;;;;;;351381;28;825;-63
2022/09/01 00:55:07;;;;;;;;;;;;;;;;;;351333;28;940;-63
2022/09/01 00:55:17;;;;;;;;;;;;;;;;;;351301;28;896;-63
2022/09/01 00:55:27;;;;;;;;;;;;;;;;;;351395;28;995;-63
2022/09/01 00:55:38;;;;;;;;;;;;;;;;;;351398;28;996;-63
2022/09/01 00:55:48;;;;;;;;;;;;;;;;;;351256;28;916;-63
2022/09/01 00:55:58;;;;;;;;;;;;;;;;;;350592;28;1883;-63
2022/09/01 00:56:08;;;;;;;;;;;;;;;;;;350930;28;1313;-63
2022/09/01 00:56:18;;;;;;;;;;;;;;;;;;351314;28;1546;-63
2022/09/01 00:56:29;;;;;;;;;;;;;;;;;;351330;28;980;-63
2022/09/01 00:56:39;;;;;;;;;;;;;;;;;;349945;28;1712;-63
2022/09/01 00:56:49;;;;;;;;;;;;;;;;;;349819;28;1844;-63
2022/09/01 00:56:59;;;;;;;;;;;;;;;;;;351284;28;1517;-63
2022/09/01 00:57:09;;;;;;;;;;;;;;;;;;351381;28;789;-63
2022/09/01 00:57:19;;;;;;;;;;;;;;;;;;351363;28;904;-63
2022/09/01 00:57:29;;;;;;;;;;;;;;;;;;352055;28;1518;-63
2022/09/01 00:57:40;;;;;;;;;;;;;;;;;;352614;28;1119;-63
2022/09/01 00:57:50;;;;;;;;;;;;;;;;;;352771;28;873;-63
2022/09/01 00:58:00;;;;;;;;;;;;;;;;;;352741;28;1952;-63
2022/09/01 00:58:10;;;;;;;;;;;;;;;;;;352736;28;987;-63
2022/09/01 00:58:20;;;;;;;;;;;;;;;;;;350369;28;1929;-63
2022/09/01 00:58:30;;;;;;;;;;;;;;;;;;351289;28;1538;-63
2022/09/01 00:58:40;;;;;;;;;;;;;;;;;;351399;28;864;-63
2022/09/01 00:58:50;;;;;;;;;;;;;;;;;;351305;28;936;-63
2022/09/01 00:59:00;;;;;;;;;;;;;;;;;;351349;28;857;-63
2022/09/01 00:59:11;;;;;;;;;;;;;;;;;;351258;28;758;-63
2022/09/01 00:59:21;;;;;;;;;;;;;;;;;;351358;28;1023;-63
2022/09/01 00:59:31;;;;;;;;;;;;;;;;;;351376;28;785;-63
2022/09/01 00:59:41;;;;;;;;;;;;;;;;;;351391;28;923;-63
2022/09/01 00:59:51;;;;;;;;;;;;;;;;;;351353;28;924;-63
2022/09/01 01:00:01;;;;;;;;;;;;;;;;;;351357;28;859;-63
2022/09/01 01:00:12;;;;;;;;;;;;;;;;;;351309;28;1024;-63
2022/09/01 01:00:22;;;;;;;;;;;;;;;;;;351364;28;924;-63
2022/09/01 01:00:32;;;;;;;;;;;;;;;;;;351367;28;944;-63
2022/09/01 01:00:42;;;;;;;;;;;;;;;;;;351362;28;940;-63
2022/09/01 01:00:52;;;;;;;;;;;;;;;;;;350153;28;1906;-63
2022/09/01 01:01:02;;;;;;;;;;;;;;;;;;351264;28;1616;-63
2022/09/01 01:01:15;;;;;;;;;;;;;;;;;;351333;28;786;-63
2022/09/01 01:01:25;;;;;;;;;;;;;;;;;;351381;28;967;-63
2022/09/01 01:01:35;;;;;;;;;;;;;;;;;;351358;28;908;-63
2022/09/01 01:01:45;;;;;;;;;;;;;;;;;;350257;28;1899;-63
2022/09/01 01:01:56;;;;;;;;;;;;;;;;;;351272;28;1352;-63
2022/09/01 01:02:07;;;;;;;;;;;;;;;;;;351356;28;931;-63
2022/09/01 01:02:17;;;;;;;;;;;;;;;;;;351344;28;1035;-63
2022/09/01 01:02:27;;;;;;;;;;;;;;;;;;351608;28;1569;-63
2022/09/01 01:02:37;;;;;;;;;;;;;;;;;;352765;28;951;-63
2022/09/01 01:02:47;;;;;;;;;;;;;;;;;;352771;28;948;-63
2022/09/01 01:02:58;;;;;;;;;;;;;;;;;;351008;28;1953;-62
2022/09/01 01:03:08;;;;;;;;;;;;;;;;;;351254;28;1301;-63
2022/09/01 01:03:18;;;;;;;;;;;;;;;;;;351269;28;979;-62
2022/09/01 01:03:29;;;;;;;;;;;;;;;;;;351359;28;936;-63
2022/09/01 01:03:41;;;;;;;;;;;;;;;;;;351313;28;1545;-63
2022/09/01 01:03:51;;;;;;;;;;;;;;;;;;351413;28;864;-63
2022/09/01 01:04:01;;;;;;;;;;;;;;;;;;351307;28;951;-63
2022/09/01 01:04:13;;;;;;;;;;;;;;;;;;351379;28;824;-63
2022/09/01 01:04:23;;;;;;;;;;;;;;;;;;350518;28;1743;-63
2022/09/01 01:04:33;;;;;;;;;;;;;;;;;;350278;28;935;-63
2022/09/01 01:04:45;;;;;;;;;;;;;;;;;;349919;28;1028;-63
2022/09/01 01:04:58;;;;;;;;;;;;;;;;;;349917;28;940;-63
2022/09/01 01:05:08;;;;;;;;;;;;;;;;;;349399;28;1903;-62
2022/09/01 01:05:20;;;;;;;;;;;;;;;;;;350988;28;1483;-63
2022/09/01 01:05:31;;;;;;;;;;;;;;;;;;351385;28;939;-63
2022/09/01 01:05:45;;;;;;;;;;;;;;;;;;351310;28;785;-63
2022/09/01 01:05:56;;;;;;;;;;;;;;;;;;349953;28;975;-63
2022/09/01 01:06:07;;;;;;;;;;;;;;;;;;349956;28;1019;-63
2022/09/01 01:06:18;;;;;;;;;;;;;;;;;;350500;28;939;-63
2022/09/01 01:06:29;;;;;;;;;;;;;;;;;;352684;28;935;-63
2022/09/01 01:06:39;;;;;;;;;;;;;;;;;;352820;28;820;-63
2022/09/01 01:06:57;;;;;;;;;;;;;;;;;;352731;28;994;-62
2022/09/01 01:07:08;;;;;;;;;;;;;;;;;;350808;28;1910;-63
2022/09/01 01:07:19;;;;;;;;;;;;;;;;;;350326;28;1546;-63
2022/09/01 01:07:29;;;;;;;;;;;;;;;;;;351308;28;959;-63
2022/09/01 01:07:41;;;;;;;;;;;;;;;;;;351378;28;979;-63
2022/09/01 01:07:51;;;;;;;;;;;;;;;;;;351201;28;1526;-63
2022/09/01 01:08:01;;;;;;;;;;;;;;;;;;352632;28;971;-63
2022/09/01 01:08:11;;;;;;;;;;;;;;;;;;352797;28;923;-63
2022/09/01 01:08:26;;;;;;;;;;;;;;;;;;352774;28;983;-63
2022/09/01 01:08:36;;;;;;;;;;;;;;;;;;352765;28;880;-63
2022/09/01 01:08:55;;;;;;;;;;;;;;;;;;352780;28;1133;-63
2022/09/01 01:09:05;;;;;;;;;;;;;;;;;;352805;28;860;-62
2022/09/01 01:09:15;;;;;;;;;;;;;;;;;;350758;28;1937;-63
2022/09/01 01:09:25;;;;;;;;;;;;;;;;;;351295;28;1510;-63
2022/09/01 01:09:36;;;;;;;;;;;;;;;;;;351363;28;932;-62
2022/09/01 01:09:46;;;;;;;;;;;;;;;;;;350536;28;1295;-63
2022/09/01 01:09:56;;;;;;;;;;;;;;;;;;351220;28;1550;-63
2022/09/01 01:10:06;;;;;;;;;;;;;;;;;;351404;28;836;-63
2022/09/01 01:10:16;;;;;;;;;;;;;;;;;;351368;28;824;-63
2022/09/01 01:10:27;;;;;;;;;;;;;;;;;;351330;28;936;-63
2022/09/01 01:10:37;;;;;;;;;;;;;;;;;;351296;28;939;-63
2022/09/01 01:10:48;;;;;;;;;;;;;;;;;;351420;28;773;-63
2022/09/01 01:10:58;;;;;;;;;;;;;;;;;;351356;28;924;-63
2022/09/01 01:11:08;;;;;;;;;;;;;;;;;;351374;28;1007;-62
2022/09/01 01:11:18;;;;;;;;;;;;;;;;;;351262;28;979;-63
2022/09/01 01:11:28;;;;;;;;;;;;;;;;;;351349;28;959;-63
2022/09/01 01:11:38;;;;;;;;;;;;;;;;;;351333;28;912;-63
2022/09/01 01:11:48;;;;;;;;;;;;;;;;;;351317;28;967;-62
2022/09/01 01:11:59;;;;;;;;;;;;;;;;;;351333;28;894;-63
2022/09/01 01:12:12;;;;;;;;;;;;;;;;;;350176;28;1953;-63
2022/09/01 01:12:22;;;;;;;;;;;;;;;;;;349951;28;983;-63
2022/09/01 01:12:34;;;;;;;;;;;;;;;;;;349954;28;956;-63
2022/09/01 01:12:44;;;;;;;;;;;;;;;;;;350564;28;1511;-63
2022/09/01 01:12:55;;;;;;;;;;;;;;;;;;351358;28;920;-63
2022/09/01 01:13:05;;;;;;;;;;;;;;;;;;351363;28;916;-63
2022/09/01 01:13:15;;;;;;;;;;;;;;;;;;351383;28;864;-63
2022/09/01 01:13:26;;;;;;;;;;;;;;;;;;351273;28;979;-63
2022/09/01 01:13:36;;;;;;;;;;;;;;;;;;351347;28;932;-64
2022/09/01 01:13:47;;;;;;;;;;;;;;;;;;351372;28;848;-63
2022/09/01 01:13:57;;;;;;;;;;;;;;;;;;351300;28;948;-63
2022/09/01 01:14:10;;;;;;;;;;;;;;;;;;351304;28;967;-63
2022/09/01 01:14:21;;;;;;;;;;;;;;;;;;350672;28;1910;-63
2022/09/01 01:14:31;;;;;;;;;;;;;;;;;;350825;28;1301;-63
2022/09/01 01:14:41;;;;;;;;;;;;;;;;;;351290;28;1581;-63